sensor_id;sensor_type;location;lat;lon;timestamp;pressure;altitude;pressure_sealevel;temperature;humidity
3524;BME280;1776;53.330;11.498;2023-05-29T00:00:08;26025.38;;;-147.39;49.18
3524;BME280;1776;53.330;11.498;2023-05-29T00:02:34;26011.16;;;-147.39;49.33
3524;BME280;1776;53.330;11.498;2023-05-29T00:04:59;26003.00;;;-147.39;49.36
3524;BME280;1776;53.330;11.498;2023-05-29T00:07:28;25974.53;;;-147.39;49.44
3524;BME280;1776;53.330;11.498;2023-05-29T00:09:54;25984.69;;;-147.39;49.63
3524;BME280;1776;53.330;11.498;2023-05-29T00:12:19;25974.53;;;-147.39;49.24
3524;BME280;1776;53.330;11.498;2023-05-29T00:14:45;25960.28;;;-147.39;49.40
3524;BME280;1776;53.330;11.498;2023-05-29T00:17:10;25996.91;;;-147.39;49.34
3524;BME280;1776;53.330;11.498;2023-05-29T00:19:37;25927.75;;;-147.39;49.39
3524;BME280;1776;53.330;11.498;2023-05-29T00:22:03;25937.91;;;-147.39;49.65
3524;BME280;1776;53.330;11.498;2023-05-29T00:24:28;25915.53;;;-147.39;49.99
3524;BME280;1776;53.330;11.498;2023-05-29T00:26:53;25915.53;;;-147.39;50.09
3524;BME280;1776;53.330;11.498;2023-05-29T00:29:18;25941.97;;;-147.39;50.03
3524;BME280;1776;53.330;11.498;2023-05-29T00:31:46;25921.63;;;-147.39;50.48
3524;BME280;1776;53.330;11.498;2023-05-29T00:34:11;25876.88;;;-147.39;50.40
3524;BME280;1776;53.330;11.498;2023-05-29T00:36:36;25862.66;;;-147.39;50.23
3524;BME280;1776;53.330;11.498;2023-05-29T00:39:02;25862.66;;;-147.39;50.29
3524;BME280;1776;53.330;11.498;2023-05-29T00:41:27;25952.16;;;-147.39;50.24
3524;BME280;1776;53.330;11.498;2023-05-29T00:43:53;25876.88;;;-147.39;50.19
3524;BME280;1776;53.330;11.498;2023-05-29T00:46:18;25824.00;;;-147.39;50.17
3524;BME280;1776;53.330;11.498;2023-05-29T00:48:45;25856.53;;;-147.39;50.19
3524;BME280;1776;53.330;11.498;2023-05-29T00:51:12;25821.97;;;-147.39;50.27
3524;BME280;1776;53.330;11.498;2023-05-29T00:53:40;25832.13;;;-147.39;50.21
3524;BME280;1776;53.330;11.498;2023-05-29T00:56:07;25821.97;;;-147.39;50.17
3524;BME280;1776;53.330;11.498;2023-05-29T00:58:34;25895.19;;;-147.39;49.95
3524;BME280;1776;53.330;11.498;2023-05-29T01:00:59;25846.38;;;-147.39;50.05
3524;BME280;1776;53.330;11.498;2023-05-29T01:03:25;25793.50;;;-147.39;50.19
3524;BME280;1776;53.330;11.498;2023-05-29T01:05:50;25821.97;;;-147.39;49.91
3524;BME280;1776;53.330;11.498;2023-05-29T01:08:17;25842.31;;;-147.39;49.95
3524;BME280;1776;53.330;11.498;2023-05-29T01:10:43;25842.31;;;-147.39;49.89
3524;BME280;1776;53.330;11.498;2023-05-29T01:13:12;25813.81;;;-147.39;49.87
3524;BME280;1776;53.330;11.498;2023-05-29T01:15:58;25909.44;;;-147.39;50.36
3524;BME280;1776;53.330;11.498;2023-05-29T01:18:46;25795.53;;;-147.39;50.25
3524;BME280;1776;53.330;11.498;2023-05-29T01:21:35;25783.31;;;-147.39;50.53
3524;BME280;1776;53.330;11.498;2023-05-29T01:24:20;25799.59;;;-147.39;50.64
3524;BME280;1776;53.330;11.498;2023-05-29T01:29:29;25817.91;;;-147.39;50.40
3524;BME280;1776;53.330;11.498;2023-05-29T01:31:58;25742.63;;;-147.39;50.88
3524;BME280;1776;53.330;11.498;2023-05-29T01:34:23;25760.94;;;-147.39;51.07
3524;BME280;1776;53.330;11.498;2023-05-29T01:36:49;25832.13;;;-147.39;51.11
3524;BME280;1776;53.330;11.498;2023-05-29T01:39:14;25736.53;;;-147.39;51.20
3524;BME280;1776;53.330;11.498;2023-05-29T01:41:41;25923.69;;;-147.39;51.21
3524;BME280;1776;53.330;11.498;2023-05-29T01:44:08;25769.06;;;-147.39;51.23
3524;BME280;1776;53.330;11.498;2023-05-29T01:46:35;25805.69;;;-147.39;51.17
3524;BME280;1776;53.330;11.498;2023-05-29T01:49:02;25730.44;;;-147.39;51.66
3524;BME280;1776;53.330;11.498;2023-05-29T01:51:28;25754.84;;;-147.39;51.62
3524;BME280;1776;53.330;11.498;2023-05-29T01:53:53;25736.53;;;-147.39;51.68
3524;BME280;1776;53.330;11.498;2023-05-29T01:56:19;25691.78;;;-147.39;51.57
3524;BME280;1776;53.330;11.498;2023-05-29T01:58:48;25689.75;;;-147.39;51.70
3524;BME280;1776;53.330;11.498;2023-05-29T02:01:15;25695.84;;;-147.39;51.99
3524;BME280;1776;53.330;11.498;2023-05-29T02:03:41;25289.06;;;-147.39;52.18
3524;BME280;1776;53.330;11.498;2023-05-29T02:06:06;25638.91;;;-147.39;52.30
3524;BME280;1776;53.330;11.498;2023-05-29T02:08:31;25673.47;;;-147.39;52.55
3524;BME280;1776;53.330;11.498;2023-05-29T02:10:57;25716.19;;;-147.39;52.70
3524;BME280;1776;53.330;11.498;2023-05-29T02:13:22;25600.25;;;-147.39;52.88
3524;BME280;1776;53.330;11.498;2023-05-29T02:15:47;25645.00;;;-147.39;52.80
3524;BME280;1776;53.330;11.498;2023-05-29T02:18:14;25579.91;;;-147.39;53.03
3524;BME280;1776;53.330;11.498;2023-05-29T02:20:40;25553.47;;;-147.39;52.91
3524;BME280;1776;53.330;11.498;2023-05-29T02:23:06;25667.38;;;-147.39;53.40
3524;BME280;1776;53.330;11.498;2023-05-29T02:25:31;25567.69;;;-147.39;53.23
3524;BME280;1776;53.330;11.498;2023-05-29T02:27:56;25561.59;;;-147.39;53.32
3524;BME280;1776;53.330;11.498;2023-05-29T02:30:22;25537.19;;;-147.39;53.58
3524;BME280;1776;53.330;11.498;2023-05-29T02:32:47;25581.94;;;-147.39;53.53
3524;BME280;1776;53.330;11.498;2023-05-29T02:35:13;25529.06;;;-147.39;53.74
3524;BME280;1776;53.330;11.498;2023-05-29T02:37:43;25549.41;;;-147.39;54.08
3524;BME280;1776;53.330;11.498;2023-05-29T02:40:08;25431.44;;;-147.39;53.99
3524;BME280;1776;53.330;11.498;2023-05-29T02:42:34;25427.34;;;-147.39;54.07
3524;BME280;1776;53.330;11.498;2023-05-29T02:45:00;25002.28;;;-147.39;54.30
3524;BME280;1776;53.330;11.498;2023-05-29T02:47:25;25417.19;;;-147.39;54.33
3524;BME280;1776;53.330;11.498;2023-05-29T02:49:51;25250.41;;;-147.39;54.32
3524;BME280;1776;53.330;11.498;2023-05-29T02:52:16;25354.13;;;-147.39;54.54
3524;BME280;1776;53.330;11.498;2023-05-29T02:54:41;25386.69;;;-147.39;54.69
3524;BME280;1776;53.330;11.498;2023-05-29T02:57:06;25323.63;;;-147.39;54.72
3524;BME280;1776;53.330;11.498;2023-05-29T02:59:32;25350.06;;;-147.39;54.97
3524;BME280;1776;53.330;11.498;2023-05-29T03:01:57;25313.47;;;-147.39;54.98
3524;BME280;1776;53.330;11.498;2023-05-29T03:04:22;25311.44;;;-147.39;55.36
3524;BME280;1776;53.330;11.498;2023-05-29T03:06:48;25291.09;;;-147.39;55.19
3524;BME280;1776;53.330;11.498;2023-05-29T03:09:13;25272.78;;;-147.39;55.43
3524;BME280;1776;53.330;11.498;2023-05-29T03:11:40;25250.41;;;-147.39;55.46
3524;BME280;1776;53.330;11.498;2023-05-29T03:14:06;25291.09;;;-147.39;56.00
3524;BME280;1776;53.330;11.498;2023-05-29T03:16:31;25219.91;;;-147.39;55.86
3524;BME280;1776;53.330;11.498;2023-05-29T03:18:56;25240.25;;;-147.39;55.73
3524;BME280;1776;53.330;11.498;2023-05-29T03:21:22;25211.75;;;-147.39;56.01
3524;BME280;1776;53.330;11.498;2023-05-29T03:23:47;25217.88;;;-147.39;55.99
3524;BME280;1776;53.330;11.498;2023-05-29T03:26:12;25215.84;;;-147.39;56.17
3524;BME280;1776;53.330;11.498;2023-05-29T03:28:38;25179.22;;;-147.39;56.30
3524;BME280;1776;53.330;11.498;2023-05-29T03:31:03;25199.56;;;-147.39;56.58
3524;BME280;1776;53.330;11.498;2023-05-29T03:33:29;25215.84;;;-147.39;56.56
3524;BME280;1776;53.330;11.498;2023-05-29T03:35:54;25191.44;;;-147.39;56.62
3524;BME280;1776;53.330;11.498;2023-05-29T03:38:20;25158.88;;;-147.39;56.85
3524;BME280;1776;53.330;11.498;2023-05-29T03:40:45;25140.59;;;-147.39;56.81
3524;BME280;1776;53.330;11.498;2023-05-29T03:43:11;25236.16;;;-147.39;57.18
3524;BME280;1776;53.330;11.498;2023-05-29T03:45:36;25154.81;;;-147.39;57.43
3524;BME280;1776;53.330;11.498;2023-05-29T03:48:01;25134.47;;;-147.39;57.10
3524;BME280;1776;53.330;11.498;2023-05-29T03:50:27;25061.25;;;-147.39;57.17
3524;BME280;1776;53.330;11.498;2023-05-29T03:52:52;25132.44;;;-147.39;57.39
3524;BME280;1776;53.330;11.498;2023-05-29T03:55:17;25093.81;;;-147.39;57.35
3524;BME280;1776;53.330;11.498;2023-05-29T03:57:42;25134.47;;;-147.39;57.50
3524;BME280;1776;53.330;11.498;2023-05-29T04:00:11;25173.13;;;-147.39;57.47
3524;BME280;1776;53.330;11.498;2023-05-29T04:02:37;25136.50;;;-147.39;57.43
3524;BME280;1776;53.330;11.498;2023-05-29T04:05:04;24988.03;;;-147.39;57.33
3524;BME280;1776;53.330;11.498;2023-05-29T04:07:31;25173.13;;;-147.39;57.35
3524;BME280;1776;53.330;11.498;2023-05-29T04:09:56;25142.63;;;-147.39;57.27
3524;BME280;1776;53.330;11.498;2023-05-29T04:12:21;25087.69;;;-147.39;57.57
3524;BME280;1776;53.330;11.498;2023-05-29T04:14:47;25130.41;;;-147.39;57.46
3524;BME280;1776;53.330;11.498;2023-05-29T04:17:12;25134.47;;;-147.39;57.76
3524;BME280;1776;53.330;11.498;2023-05-29T04:19:37;25156.84;;;-147.39;57.64
3524;BME280;1776;53.330;11.498;2023-05-29T04:22:02;25134.47;;;-147.39;57.34
3524;BME280;1776;53.330;11.498;2023-05-29T04:24:28;25108.03;;;-147.39;57.44
3524;BME280;1776;53.330;11.498;2023-05-29T04:26:53;25156.84;;;-147.39;57.67
3524;BME280;1776;53.330;11.498;2023-05-29T04:29:18;25114.13;;;-147.39;57.48
3524;BME280;1776;53.330;11.498;2023-05-29T04:31:44;25110.06;;;-147.39;57.33
3524;BME280;1776;53.330;11.498;2023-05-29T04:34:09;25130.41;;;-147.39;57.40
3524;BME280;1776;53.330;11.498;2023-05-29T04:36:35;25132.44;;;-147.39;57.18
3524;BME280;1776;53.330;11.498;2023-05-29T04:39:04;25136.50;;;-147.39;57.17
3524;BME280;1776;53.330;11.498;2023-05-29T04:41:29;25108.03;;;-147.39;57.08
3524;BME280;1776;53.330;11.498;2023-05-29T04:43:56;25130.41;;;-147.39;57.16
3524;BME280;1776;53.330;11.498;2023-05-29T04:46:22;25138.53;;;-147.39;57.14
3524;BME280;1776;53.330;11.498;2023-05-29T04:48:49;25167.03;;;-147.39;56.95
3524;BME280;1776;53.330;11.498;2023-05-29T04:51:18;25171.09;;;-147.39;57.00
3524;BME280;1776;53.330;11.498;2023-05-29T04:53:45;25167.03;;;-147.39;56.85
3524;BME280;1776;53.330;11.498;2023-05-29T04:56:12;25158.88;;;-147.39;56.95
3524;BME280;1776;53.330;11.498;2023-05-29T04:58:37;25352.09;;;-147.39;56.74
3524;BME280;1776;53.330;11.498;2023-05-29T05:01:02;25319.56;;;-147.39;56.52
3524;BME280;1776;53.330;11.498;2023-05-29T05:03:29;25280.91;;;-147.39;56.42
3524;BME280;1776;53.330;11.498;2023-05-29T05:05:55;25219.91;;;-147.39;56.46
3524;BME280;1776;53.330;11.498;2023-05-29T05:08:21;25193.47;;;-147.39;56.71
3524;BME280;1776;53.330;11.498;2023-05-29T05:10:46;25169.06;;;-147.39;56.69
3524;BME280;1776;53.330;11.498;2023-05-29T05:13:11;25211.75;;;-147.39;56.76
3524;BME280;1776;53.330;11.498;2023-05-29T05:15:37;25207.69;;;-147.39;56.81
3524;BME280;1776;53.330;11.498;2023-05-29T05:18:03;25197.53;;;-147.39;56.54
3524;BME280;1776;53.330;11.498;2023-05-29T05:20:28;25248.38;;;-147.39;56.37
3524;BME280;1776;53.330;11.498;2023-05-29T05:22:53;25195.50;;;-147.39;56.35
3524;BME280;1776;53.330;11.498;2023-05-29T05:25:19;25217.88;;;-147.39;56.23
3524;BME280;1776;53.330;11.498;2023-05-29T05:27:44;25260.56;;;-147.39;56.38
3524;BME280;1776;53.330;11.498;2023-05-29T05:30:09;25223.97;;;-147.39;56.53
3524;BME280;1776;53.330;11.498;2023-05-29T05:32:35;25228.03;;;-147.39;56.81
3524;BME280;1776;53.330;11.498;2023-05-29T05:35:00;25254.47;;;-147.39;56.59
3524;BME280;1776;53.330;11.498;2023-05-29T05:37:26;25242.28;;;-147.39;56.41
3524;BME280;1776;53.330;11.498;2023-05-29T05:39:51;25217.88;;;-147.39;56.44
3524;BME280;1776;53.330;11.498;2023-05-29T05:42:18;25297.19;;;-147.39;56.20
3524;BME280;1776;53.330;11.498;2023-05-29T05:44:44;25260.56;;;-147.39;55.75
3524;BME280;1776;53.330;11.498;2023-05-29T05:47:09;25293.13;;;-147.39;55.97
3524;BME280;1776;53.330;11.498;2023-05-29T05:49:35;25236.16;;;-147.39;56.02
3524;BME280;1776;53.330;11.498;2023-05-29T05:52:00;25236.16;;;-147.39;55.70
3524;BME280;1776;53.330;11.498;2023-05-29T05:54:25;25303.28;;;-147.39;56.37
3524;BME280;1776;53.330;11.498;2023-05-29T05:56:50;25246.34;;;-147.39;56.54
3524;BME280;1776;53.330;11.498;2023-05-29T05:59:16;25274.81;;;-147.39;56.15
3524;BME280;1776;53.330;11.498;2023-05-29T06:01:41;25297.19;;;-147.39;56.37
3524;BME280;1776;53.330;11.498;2023-05-29T06:04:06;25274.81;;;-147.39;55.77
3524;BME280;1776;53.330;11.498;2023-05-29T06:06:32;25341.94;;;-147.39;55.27
3524;BME280;1776;53.330;11.498;2023-05-29T06:08:57;25295.16;;;-147.39;55.43
3524;BME280;1776;53.330;11.498;2023-05-29T06:11:24;25301.25;;;-147.39;55.16
3524;BME280;1776;53.330;11.498;2023-05-29T06:13:50;25317.53;;;-147.39;55.36
3524;BME280;1776;53.330;11.498;2023-05-29T06:16:16;25339.91;;;-147.39;54.98
3524;BME280;1776;53.330;11.498;2023-05-29T06:18:41;25301.25;;;-147.39;54.56
3524;BME280;1776;53.330;11.498;2023-05-29T06:21:07;25362.28;;;-147.39;54.25
3524;BME280;1776;53.330;11.498;2023-05-29T06:23:32;25341.94;;;-147.39;54.57
3524;BME280;1776;53.330;11.498;2023-05-29T06:25:58;25398.88;;;-147.39;54.58
3524;BME280;1776;53.330;11.498;2023-05-29T06:28:24;25311.44;;;-147.39;54.38
3524;BME280;1776;53.330;11.498;2023-05-29T06:30:49;25346.00;;;-147.39;54.43
3524;BME280;1776;53.330;11.498;2023-05-29T06:33:14;25339.91;;;-147.39;54.33
3524;BME280;1776;53.330;11.498;2023-05-29T06:35:40;25368.38;;;-147.39;54.27
3524;BME280;1776;53.330;11.498;2023-05-29T06:38:05;25413.13;;;-147.39;53.87
3524;BME280;1776;53.330;11.498;2023-05-29T06:40:31;25417.19;;;-147.39;53.55
3524;BME280;1776;53.330;11.498;2023-05-29T06:42:56;25402.94;;;-147.39;53.74
3524;BME280;1776;53.330;11.498;2023-05-29T06:45:21;25474.13;;;-147.39;53.35
3524;BME280;1776;53.330;11.498;2023-05-29T06:47:47;25527.03;;;-147.39;52.95
3524;BME280;1776;53.330;11.498;2023-05-29T06:50:13;25020.59;;;-147.39;53.04
3524;BME280;1776;53.330;11.498;2023-05-29T06:52:39;25451.75;;;-147.39;52.93
3524;BME280;1776;53.330;11.498;2023-05-29T06:55:05;25439.56;;;-147.39;52.89
3524;BME280;1776;53.330;11.498;2023-05-29T06:57:31;25492.44;;;-147.39;52.44
3524;BME280;1776;53.330;11.498;2023-05-29T06:59:56;25480.25;;;-147.39;52.29
3524;BME280;1776;53.330;11.498;2023-05-29T07:02:21;25508.72;;;-147.39;51.92
3524;BME280;1776;53.330;11.498;2023-05-29T07:04:46;25305.31;;;-147.39;51.64
3524;BME280;1776;53.330;11.498;2023-05-29T07:07:12;25547.38;;;-147.39;51.02
3524;BME280;1776;53.330;11.498;2023-05-29T07:09:37;25586.00;;;-147.39;51.32
3524;BME280;1776;53.330;11.498;2023-05-29T07:12:04;25514.81;;;-147.39;51.69
3524;BME280;1776;53.330;11.498;2023-05-29T07:14:30;25520.91;;;-147.39;51.54
3524;BME280;1776;53.330;11.498;2023-05-29T07:16:55;25520.91;;;-147.39;51.43
3524;BME280;1776;53.330;11.498;2023-05-29T07:19:21;25516.84;;;-147.39;51.00
3524;BME280;1776;53.330;11.498;2023-05-29T07:21:46;25551.44;;;-147.39;50.68
3524;BME280;1776;53.330;11.498;2023-05-29T07:24:11;25551.44;;;-147.39;50.84
3524;BME280;1776;53.330;11.498;2023-05-29T07:26:37;25504.66;;;-147.39;51.69
3524;BME280;1776;53.330;11.498;2023-05-29T07:29:02;25541.25;;;-147.39;51.75
3524;BME280;1776;53.330;11.498;2023-05-29T07:31:27;25431.44;;;-147.39;50.81
3524;BME280;1776;53.330;11.498;2023-05-29T07:33:53;25535.16;;;-147.39;50.75
3524;BME280;1776;53.330;11.498;2023-05-29T07:36:19;25571.78;;;-147.39;50.90
3524;BME280;1776;53.330;11.498;2023-05-29T07:38:44;25594.16;;;-147.39;50.15
3524;BME280;1776;53.330;11.498;2023-05-29T07:41:10;25616.53;;;-147.39;49.55
3524;BME280;1776;53.330;11.498;2023-05-29T07:43:35;25626.69;;;-147.39;48.70
3524;BME280;1776;53.330;11.498;2023-05-29T07:46:00;25653.13;;;-147.39;48.27
3524;BME280;1776;53.330;11.498;2023-05-29T07:48:26;25657.19;;;-147.39;47.74
3524;BME280;1776;53.330;11.498;2023-05-29T07:50:51;25638.91;;;-147.39;48.42
3524;BME280;1776;53.330;11.498;2023-05-29T07:53:17;25665.34;;;-147.39;48.32
3524;BME280;1776;53.330;11.498;2023-05-29T07:55:42;25720.25;;;-147.39;46.70
3524;BME280;1776;53.330;11.498;2023-05-29T07:58:07;25730.44;;;-147.39;46.85
3524;BME280;1776;53.330;11.498;2023-05-29T08:00:34;25697.88;;;-147.39;46.98
3524;BME280;1776;53.330;11.498;2023-05-29T08:02:59;25354.13;;;-147.39;47.61
3524;BME280;1776;53.330;11.498;2023-05-29T08:05:25;25730.44;;;-147.39;47.37
3524;BME280;1776;53.330;11.498;2023-05-29T08:07:50;25748.75;;;-147.39;47.57
3524;BME280;1776;53.330;11.498;2023-05-29T08:10:16;25842.31;;;-147.39;45.82
3524;BME280;1776;53.330;11.498;2023-05-29T08:12:41;25797.56;;;-147.39;46.01
3524;BME280;1776;53.330;11.498;2023-05-29T08:15:07;25860.63;;;-147.39;45.56
3524;BME280;1776;53.330;11.498;2023-05-29T08:17:32;25832.13;;;-147.39;45.88
3524;BME280;1776;53.330;11.498;2023-05-29T08:19:58;25836.22;;;-147.39;45.28
3524;BME280;1776;53.330;11.498;2023-05-29T08:22:28;25838.25;;;-147.39;46.35
3524;BME280;1776;53.330;11.498;2023-05-29T08:24:54;25858.59;;;-147.39;45.65
3524;BME280;1776;53.330;11.498;2023-05-29T08:27:20;25907.41;;;-147.39;45.20
3524;BME280;1776;53.330;11.498;2023-05-29T08:29:45;25956.22;;;-147.39;44.85
3524;BME280;1776;53.330;11.498;2023-05-29T08:32:10;25994.88;;;-147.39;44.00
3524;BME280;1776;53.330;11.498;2023-05-29T08:34:36;25970.47;;;-147.39;44.09
3524;BME280;1776;53.330;11.498;2023-05-29T08:37:01;26027.41;;;-147.39;43.04
3524;BME280;1776;53.330;11.498;2023-05-29T08:39:26;25998.94;;;-147.39;43.58
3524;BME280;1776;53.330;11.498;2023-05-29T08:42:19;26023.34;;;-147.39;44.12
3524;BME280;1776;53.330;11.498;2023-05-29T08:44:47;26094.56;;;-147.39;43.17
3524;BME280;1776;53.330;11.498;2023-05-29T08:47:16;26180.00;;;-147.39;42.49
3524;BME280;1776;53.330;11.498;2023-05-29T08:49:53;26230.84;;;-147.39;42.98
3524;BME280;1776;53.330;11.498;2023-05-29T08:52:23;26149.47;;;-147.39;42.87
3524;BME280;1776;53.330;11.498;2023-05-29T08:54:53;26198.31;;;-147.39;42.77
3524;BME280;1776;53.330;11.498;2023-05-29T08:57:19;26196.28;;;-147.39;42.72
3524;BME280;1776;53.330;11.498;2023-05-29T08:59:46;26108.78;;;-147.39;41.96
3524;BME280;1776;53.330;11.498;2023-05-29T09:02:14;26157.63;;;-147.39;41.52
3524;BME280;1776;53.330;11.498;2023-05-29T09:04:41;26269.50;;;-147.39;41.44
3524;BME280;1776;53.330;11.498;2023-05-29T09:07:07;26361.06;;;-147.39;40.81
3524;BME280;1776;53.330;11.498;2023-05-29T09:09:33;26289.84;;;-147.39;40.68
3524;BME280;1776;53.330;11.498;2023-05-29T09:11:59;26342.75;;;-147.39;40.72
3524;BME280;1776;53.330;11.498;2023-05-29T09:14:43;26352.91;;;-147.39;40.38
3524;BME280;1776;53.330;11.498;2023-05-29T09:17:10;26365.13;;;-147.39;40.55
3524;BME280;1776;53.330;11.498;2023-05-29T09:19:36;26379.38;;;-147.39;40.07
3524;BME280;1776;53.330;11.498;2023-05-29T09:22:09;26393.59;;;-147.39;39.93
3524;BME280;1776;53.330;11.498;2023-05-29T09:24:36;26442.44;;;-147.39;40.07
3524;BME280;1776;53.330;11.498;2023-05-29T09:27:03;26452.59;;;-147.39;39.80
3524;BME280;1776;53.330;11.498;2023-05-29T09:29:40;26507.53;;;-147.39;39.10
3524;BME280;1776;53.330;11.498;2023-05-29T09:32:10;26538.06;;;-147.39;39.10
3524;BME280;1776;53.330;11.498;2023-05-29T09:34:36;26505.50;;;-147.39;38.36
3524;BME280;1776;53.330;11.498;2023-05-29T09:37:03;26578.75;;;-147.39;38.36
3524;BME280;1776;53.330;11.498;2023-05-29T09:42:07;26694.72;;;-147.39;37.58
3524;BME280;1776;53.330;11.498;2023-05-29T09:44:32;26633.69;;;-147.39;36.74
3524;BME280;1776;53.330;11.498;2023-05-29T09:46:59;26619.44;;;-147.39;37.34
3524;BME280;1776;53.330;11.498;2023-05-29T09:49:25;26741.53;;;-147.39;37.02
3524;BME280;1776;53.330;11.498;2023-05-29T09:51:55;26761.88;;;-147.39;36.12
3524;BME280;1776;53.330;11.498;2023-05-29T09:54:21;26800.53;;;-147.39;36.68
3524;BME280;1776;53.330;11.498;2023-05-29T09:56:47;26863.59;;;-147.39;36.25
3524;BME280;1776;53.330;11.498;2023-05-29T09:59:14;26867.66;;;-147.39;36.23
3524;BME280;1776;53.330;11.498;2023-05-29T10:01:41;26902.25;;;-147.39;35.91
3524;BME280;1776;53.330;11.498;2023-05-29T10:04:10;26969.41;;;-147.39;35.36
3524;BME280;1776;53.330;11.498;2023-05-29T10:06:37;26945.00;;;-147.39;34.92
3524;BME280;1776;53.330;11.498;2023-05-29T10:09:06;27006.03;;;-147.39;35.07
3524;BME280;1776;53.330;11.498;2023-05-29T10:11:35;27016.19;;;-147.39;34.47
3524;BME280;1776;53.330;11.498;2023-05-29T10:14:03;27085.38;;;-147.39;34.03
3524;BME280;1776;53.330;11.498;2023-05-29T10:16:30;27022.31;;;-147.39;33.94
3524;BME280;1776;53.330;11.498;2023-05-29T10:19:01;27060.97;;;-147.39;33.88
3524;BME280;1776;53.330;11.498;2023-05-29T10:21:33;27115.91;;;-147.39;34.54
3524;BME280;1776;53.330;11.498;2023-05-29T10:24:05;27297.00;;;-147.39;33.20
3524;BME280;1776;53.330;11.498;2023-05-29T10:26:34;27134.22;;;-147.39;32.39
3524;BME280;1776;53.330;11.498;2023-05-29T10:32:04;27126.09;;;-147.39;32.36
3524;BME280;1776;53.330;11.498;2023-05-29T10:37:32;27274.63;;;-147.39;31.83
3524;BME280;1776;53.330;11.498;2023-05-29T10:40:08;27225.78;;;-147.39;32.64
3524;BME280;1776;53.330;11.498;2023-05-29T10:45:09;27307.19;;;-147.39;32.66
3524;BME280;1776;53.330;11.498;2023-05-29T10:47:37;27215.63;;;-147.39;32.31
3524;BME280;1776;53.330;11.498;2023-05-29T10:50:02;27201.38;;;-147.39;31.83
3524;BME280;1776;53.330;11.498;2023-05-29T10:52:34;27166.78;;;-147.39;31.79
3524;BME280;1776;53.330;11.498;2023-05-29T10:55:03;27227.81;;;-147.39;31.80
3524;BME280;1776;53.330;11.498;2023-05-29T10:57:29;27297.00;;;-147.39;31.95
3524;BME280;1776;53.330;11.498;2023-05-29T11:00:06;27331.59;;;-147.39;31.36
3524;BME280;1776;53.330;11.498;2023-05-29T11:02:36;27335.69;;;-147.39;30.74
3524;BME280;1776;53.330;11.498;2023-05-29T11:05:24;27421.16;;;-147.39;30.78
3524;BME280;1776;53.330;11.498;2023-05-29T11:07:56;27364.16;;;-147.39;30.22
3524;BME280;1776;53.330;11.498;2023-05-29T11:10:42;27384.53;;;-147.39;30.45
3524;BME280;1776;53.330;11.498;2023-05-29T11:13:22;27410.97;;;-147.39;28.82
3524;BME280;1776;53.330;11.498;2023-05-29T11:15:48;27351.97;;;-147.39;29.00
3524;BME280;1776;53.330;11.498;2023-05-29T11:18:13;27382.47;;;-147.39;30.14
3524;BME280;1776;53.330;11.498;2023-05-29T11:20:49;27398.75;;;-147.39;29.34
3524;BME280;1776;53.330;11.498;2023-05-29T11:23:19;27410.97;;;-147.39;30.10
3524;BME280;1776;53.330;11.498;2023-05-29T11:25:47;27278.69;;;-147.39;30.39
3524;BME280;1776;53.330;11.498;2023-05-29T11:28:13;27470.00;;;-147.39;29.02
3524;BME280;1776;53.330;11.498;2023-05-29T11:30:51;27480.16;;;-147.39;29.23
3524;BME280;1776;53.330;11.498;2023-05-29T11:33:24;27410.97;;;-147.39;28.92
3524;BME280;1776;53.330;11.498;2023-05-29T11:35:55;27282.78;;;-147.39;29.40
3524;BME280;1776;53.330;11.498;2023-05-29T11:38:21;27341.78;;;-147.39;30.49
3524;BME280;1776;53.330;11.498;2023-05-29T11:40:47;27447.59;;;-147.39;29.64
3524;BME280;1776;53.330;11.498;2023-05-29T11:43:13;27476.09;;;-147.39;29.99
3524;BME280;1776;53.330;11.498;2023-05-29T11:45:38;27470.00;;;-147.39;29.58
3524;BME280;1776;53.330;11.498;2023-05-29T11:48:03;27606.34;;;-147.39;29.28
3524;BME280;1776;53.330;11.498;2023-05-29T11:50:32;27608.38;;;-147.39;28.80
3524;BME280;1776;53.330;11.498;2023-05-29T11:52:59;27624.66;;;-147.39;28.53
3524;BME280;1776;53.330;11.498;2023-05-29T11:55:26;27691.81;;;-147.39;28.46
3524;BME280;1776;53.330;11.498;2023-05-29T11:57:59;27329.56;;;-147.39;28.14
3524;BME280;1776;53.330;11.498;2023-05-29T12:00:26;27720.31;;;-147.39;28.63
3524;BME280;1776;53.330;11.498;2023-05-29T12:02:57;27769.16;;;-147.39;29.02
3524;BME280;1776;53.330;11.498;2023-05-29T12:05:23;27712.16;;;-147.39;28.20
3524;BME280;1776;53.330;11.498;2023-05-29T12:07:51;27777.28;;;-147.39;28.67
3524;BME280;1776;53.330;11.498;2023-05-29T12:10:19;27799.69;;;-147.39;28.85
3524;BME280;1776;53.330;11.498;2023-05-29T12:12:49;27732.50;;;-147.39;28.61
3524;BME280;1776;53.330;11.498;2023-05-29T12:15:15;27805.78;;;-147.39;28.74
3524;BME280;1776;53.330;11.498;2023-05-29T12:17:42;27756.94;;;-147.39;29.25
3524;BME280;1776;53.330;11.498;2023-05-29T12:20:10;27868.88;;;-147.39;28.94
3524;BME280;1776;53.330;11.498;2023-05-29T12:22:37;27962.50;;;-147.39;27.89
3524;BME280;1776;53.330;11.498;2023-05-29T12:25:16;27948.25;;;-147.39;27.40
3524;BME280;1776;53.330;11.498;2023-05-29T12:27:43;27881.09;;;-147.39;27.91
3524;BME280;1776;53.330;11.498;2023-05-29T12:30:13;27820.03;;;-147.39;27.21
3524;BME280;1776;53.330;11.498;2023-05-29T12:32:43;27907.53;;;-147.39;27.03
3524;BME280;1776;53.330;11.498;2023-05-29T12:35:19;28023.56;;;-147.39;27.49
3524;BME280;1776;53.330;11.498;2023-05-29T12:38:10;28064.25;;;-147.39;27.32
3524;BME280;1776;53.330;11.498;2023-05-29T12:40:34;28029.66;;;-147.39;26.97
3524;BME280;1776;53.330;11.498;2023-05-29T12:43:03;28033.72;;;-147.39;27.30
3524;BME280;1776;53.330;11.498;2023-05-29T12:45:30;27917.72;;;-147.39;26.89
3524;BME280;1776;53.330;11.498;2023-05-29T12:48:00;28054.09;;;-147.39;27.21
3524;BME280;1776;53.330;11.498;2023-05-29T12:50:37;27997.09;;;-147.39;26.53
3524;BME280;1776;53.330;11.498;2023-05-29T12:53:05;28025.59;;;-147.39;27.50
3524;BME280;1776;53.330;11.498;2023-05-29T12:55:33;28082.56;;;-147.39;26.21
3524;BME280;1776;53.330;11.498;2023-05-29T12:57:59;28072.41;;;-147.39;27.13
3524;BME280;1776;53.330;11.498;2023-05-29T13:00:24;28104.97;;;-147.39;27.11
3524;BME280;1776;53.330;11.498;2023-05-29T13:02:50;28137.53;;;-147.39;26.93